SLVR/VVI METAR and TAF weather

Enter ICAO airport designator
Station Type Date Time Source
SLVR METAR 2019/06/18 13:00 UTC NOAA

SLVR 181300Z 33010G21KT 9999 FEW013 BKN200 23/21 Q1015


Station Type Date Time Source
SLVR Decoded METAR 2019/06/18 13:00 UTC NOAA

Viru-Viru, Bolivia (SLVR) 17-38S 063-08W
Jun 18, 2019 - 09:00 AM EDT / 2019.06.18 1300 UTC
Wind: from the NNW (330 degrees) at 12 MPH (10 KT) gusting to 24 MPH (21 KT):0
Visibility: greater than 7 mile(s):0
Sky conditions: mostly cloudy
Temperature: 73 F (23 C)
Dew Point: 69 F (21 C)
Relative Humidity: 88%
Pressure (altimeter): 29.97 in. Hg (1015 hPa)
ob: SLVR 181300Z 33010G21KT 9999 FEW013 BKN200 23/21 Q1015
cycle: 13

Station Type Date Time Source
SLVR TAF 2019/06/18 12:24 UTC NOAA

TAF SLVR 180950Z 1812/1912 34013KT 9999 FEW023 TX30/1820Z TN15/1911Z
BECMG 1815/1818 34015G25KT SCT020
BECMG 1821/1823 34008KT SCT070
BECMG 1906/1909 18010KT BKN070

Example: see airport list